Colville, WA

10:41 AM PDT on July 20, 2017 (GMT -0700)
Colville Compound | | Change Station

Elev 1634 ft 48.55 °N, 117.91 °W | Updated 8 seconds ago

Clear
Clear
75.2 °F
Feels Like 78 °F
N
4.9
Wind Variable Wind from ENE
Gusts 4.9 mph

Today
High -- | Low -- °F
--% Chance of Precip.
Yesterday
High -- | Low -- °F
Precip. -- in
Pressure 30.00 in
Visibility 10.0 miles
Clouds Clear
Heat Index 78 °F
Dew Point 49 °F
Humidity 40%
Rainfall 0.00 in
Snow Depth Not available.
5:11 AM 8:43 PM
Waning Crescent, 10% visible
METAR KDEW 201653Z AUTO 17014KT 10SM CLR 21/07 A3003 RMK AO2 WSHFT 1626 SLP159 T02110067
Pressure 30.00 in
Visibility 10.0 miles
Clouds Clear
Heat Index 78 °F
Dew Point 49 °F
Humidity 40%
Rainfall 0.00 in
Snow Depth Not available.
5:11 AM 8:43 PM
Waning Crescent, 10% visible
METAR KDEW 201653Z AUTO 17014KT 10SM CLR 21/07 A3003 RMK AO2 WSHFT 1626 SLP159 T02110067

Get Severe Weather Alerts

Thanks for signing up!

Be on the lookout for a verification email in your inbox.

You'll start receiving the daily forecast at 6 AM.

×

10-Day Weather Forecast

Almanac

Astronomy

Jul. 20, 2017 Rise Set
Actual Time
Civil Twilight
Nautical Twilight
Astronomical Twilight
Moon
Length of Visible Light
Length of Day
Tomorrow will be .
, % of the Moon is Illuminated

Today's Extremes

State Highs State Lows

Community

WunderPhotos

Category 6

Welcome to Category 6. This is the collective home for Weather Underground's featured writeups by Dr. Jeff Masters (right), Bob Henson (left), Chris Burt, and other regular contributors.

Nearby

Air Quality

  Air Quality AQ Index Pollutant
Not available.

Snow Depth

Station Depth Elevation

Earthquake Activity

City Distance Mag. Time & Date
Minimum magnitude displayed is 2.5.

Coastal Water Temperatures

Place Temperature

Stations

Nearby Weather Stations

Station Location Temp. Windchill Dew Point Humidity Wind Precip. Elev Updated Type
                   

Watches & Warnings

There are currently no watches in effect.